Time;durP1;ratioP1;P1;durP2;ratioP2;P2;SDS_P1;SDS_P2;PMS_P1;PMS_P2;Temp;Humidity;BMP_temperature;BMP_pressure;BME280_temperature;BME280_humidity;BME280_pressure;Samples;Min_cycle;Max_cycle;Signal;HPM_P1;HPM_P2
2022/04/04 00:00:46;;;;;;;8.23;4.78;;;2.90;99.90;;;;;;5014164;28;20129;-67
2022/04/04 00:03:12;;;;;;;6.38;4.22;;;2.80;99.90;;;;;;5014101;28;20516;-67
2022/04/04 00:05:39;;;;;;;7.03;4.13;;;2.80;99.90;;;;;;5014444;28;20131;-67
2022/04/04 00:08:08;;;;;;;6.50;4.07;;;2.90;99.90;;;;;;5013732;28;20383;-67
2022/04/04 00:10:33;;;;;;;7.35;4.10;;;2.90;99.90;;;;;;4996588;28;20099;-68
2022/04/04 00:12:59;;;;;;;7.03;4.43;;;2.90;99.90;;;;;;4997157;28;20042;-67
2022/04/04 00:15:25;;;;;;;7.25;4.25;;;2.80;99.90;;;;;;5013990;28;20069;-67
2022/04/04 00:17:51;;;;;;;7.97;4.50;;;2.80;99.90;;;;;;5014069;28;20477;-67
2022/04/04 00:20:17;;;;;;;7.32;4.40;;;2.90;99.90;;;;;;5013525;28;20661;-67
2022/04/04 00:22:43;;;;;;;6.68;3.97;;;2.90;99.90;;;;;;5014377;28;20050;-67
2022/04/04 00:25:09;;;;;;;7.97;3.90;;;3.00;99.90;;;;;;5014255;28;20370;-67
2022/04/04 00:27:36;;;;;;;6.63;4.55;;;3.00;99.90;;;;;;5013856;28;20042;-67
2022/04/04 00:30:03;;;;;;;7.30;4.03;;;3.00;99.90;;;;;;5013594;28;20038;-67
2022/04/04 00:32:28;;;;;;;7.50;4.40;;;3.10;99.90;;;;;;4996588;28;20088;-67
2022/04/04 00:34:55;;;;;;;8.60;5.05;;;3.10;99.90;;;;;;5014043;28;20042;-67
2022/04/04 00:37:21;;;;;;;6.85;4.68;;;3.10;99.90;;;;;;5014412;28;20038;-67
2022/04/04 00:39:46;;;;;;;7.15;4.47;;;3.20;99.90;;;;;;5000304;28;20153;-66
2022/04/04 00:42:16;;;;;;;9.20;5.53;;;3.30;99.90;;;;;;5000607;28;20046;-67
2022/04/04 00:44:42;;;;;;;8.50;5.20;;;3.30;99.90;;;;;;5000533;28;20041;-67
2022/04/04 00:47:08;;;;;;;9.40;5.57;;;3.30;99.90;;;;;;5017549;28;20065;-67
2022/04/04 00:49:34;;;;;;;9.40;5.72;;;3.30;99.90;;;;;;5000562;28;20248;-68
2022/04/04 00:52:00;;;;;;;8.32;6.28;;;3.30;99.90;;;;;;5017661;28;20042;-67
2022/04/04 00:54:26;;;;;;;8.85;6.63;;;3.30;99.90;;;;;;5000335;28;20034;-68
2022/04/04 00:56:54;;;;;;;11.55;7.55;;;3.40;99.90;;;;;;5000229;28;20050;-67
2022/04/04 00:59:21;;;;;;;9.57;7.70;;;3.40;99.90;;;;;;5017660;28;20066;-66
2022/04/04 01:01:47;;;;;;;12.75;8.02;;;3.50;99.90;;;;;;5017717;28;20050;-67
2022/04/04 01:04:13;;;;;;;11.45;8.23;;;3.50;99.90;;;;;;5017735;28;20065;-67
2022/04/04 01:06:40;;;;;;;10.25;8.77;;;3.50;99.90;;;;;;5000064;28;20135;-67
2022/04/04 01:09:07;;;;;;;11.32;7.88;;;3.50;99.90;;;;;;5017137;28;20053;-67
2022/04/04 01:11:34;;;;;;;11.23;8.13;;;3.50;99.90;;;;;;5017343;28;20431;-67
2022/04/04 01:14:00;;;;;;;12.75;7.75;;;3.50;99.90;;;;;;4999826;28;20426;-67
2022/04/04 01:16:26;;;;;;;10.15;7.45;;;3.60;99.90;;;;;;5000237;28;20054;-69
2022/04/04 01:18:51;;;;;;;11.43;8.45;;;3.60;99.90;;;;;;5017042;28;20360;-67
2022/04/04 01:21:20;;;;;;;12.40;8.05;;;3.60;99.90;;;;;;4999876;28;20433;-67
2022/04/04 01:23:49;;;;;;;12.73;7.95;;;3.70;99.90;;;;;;4983802;28;20050;-67
2022/04/04 01:26:17;;;;;;;11.95;8.63;;;3.70;99.90;;;;;;5016382;28;20050;-67
2022/04/04 01:28:43;;;;;;;10.75;8.57;;;3.70;99.90;;;;;;5016495;28;20061;-67
2022/04/04 01:31:09;;;;;;;10.68;8.45;;;3.60;99.90;;;;;;5017110;28;20038;-67
2022/04/04 01:33:37;;;;;;;11.30;7.88;;;3.60;99.90;;;;;;4999669;28;20052;-68
2022/04/04 01:36:03;;;;;;;9.00;7.50;;;3.60;99.90;;;;;;5017192;28;20081;-68
2022/04/04 01:38:30;;;;;;;10.75;7.55;;;3.60;99.90;;;;;;5016601;28;20065;-67
2022/04/04 01:40:56;;;;;;;11.38;7.60;;;3.60;99.90;;;;;;4999391;28;20367;-67
2022/04/04 01:43:21;;;;;;;11.20;7.65;;;3.60;99.90;;;;;;4999875;28;20118;-68
2022/04/04 01:48:35;;;;;;;9.52;6.65;;;3.60;99.90;;;;;;5016567;28;20088;-67
2022/04/04 01:51:01;;;;;;;10.05;7.95;;;3.70;99.90;;;;;;5015311;28;20103;-67
2022/04/04 01:53:27;;;;;;;10.73;7.63;;;3.60;99.90;;;;;;5016544;28;20098;-68
2022/04/04 01:55:54;;;;;;;12.95;8.52;;;3.60;99.90;;;;;;4999310;28;20053;-68
2022/04/04 01:58:20;;;;;;;13.77;7.88;;;3.60;99.90;;;;;;5016178;28;20387;-66
2022/04/04 02:00:46;;;;;;;13.20;8.85;;;3.70;99.90;;;;;;5016288;28;20053;-67
2022/04/04 02:03:11;;;;;;;13.13;9.23;;;3.60;99.90;;;;;;4998985;28;20522;-68
2022/04/04 02:05:38;;;;;;;13.88;9.75;;;3.60;99.90;;;;;;4999211;28;20100;-68
2022/04/04 02:08:04;;;;;;;13.73;9.63;;;3.60;99.90;;;;;;5016003;28;20419;-68
2022/04/04 02:10:30;;;;;;;14.25;10.50;;;3.70;99.90;;;;;;5015951;28;20467;-68
2022/04/04 02:12:55;;;;;;;16.63;10.27;;;3.70;99.90;;;;;;4999072;28;20088;-69
2022/04/04 02:15:21;;;;;;;16.42;10.63;;;3.80;99.90;;;;;;5016025;28;20057;-68
2022/04/04 02:17:47;;;;;;;13.70;10.32;;;3.80;99.90;;;;;;5015923;28;20128;-67
2022/04/04 02:20:14;;;;;;;13.75;10.30;;;3.90;99.90;;;;;;4998752;28;20137;-67
2022/04/04 02:22:39;;;;;;;14.15;10.30;;;3.90;99.90;;;;;;4999131;28;20053;-68
2022/04/04 02:25:05;;;;;;;13.32;10.60;;;4.00;99.90;;;;;;4982646;28;20056;-67
2022/04/04 02:27:31;;;;;;;14.05;9.80;;;4.00;99.90;;;;;;4998272;28;20387;-68
2022/04/04 02:29:57;;;;;;;12.75;10.00;;;4.00;99.90;;;;;;4998423;28;20033;-67
2022/04/04 02:32:23;;;;;;;14.27;10.52;;;4.00;99.90;;;;;;5015779;28;20069;-69
2022/04/04 02:34:50;;;;;;;16.00;11.05;;;4.00;99.90;;;;;;5015883;28;20049;-67
2022/04/04 02:37:16;;;;;;;14.65;10.73;;;4.00;99.90;;;;;;5015610;28;20052;-68
2022/04/04 02:39:42;;;;;;;16.50;10.63;;;4.10;99.90;;;;;;5015700;28;20046;-67
2022/04/04 02:42:08;;;;;;;16.77;11.05;;;4.10;99.90;;;;;;4982120;28;20124;-67
2022/04/04 02:44:34;;;;;;;16.20;10.98;;;4.10;99.90;;;;;;5015835;28;20042;-68
2022/04/04 02:47:00;;;;;;;13.95;10.80;;;4.10;99.90;;;;;;4997751;28;20050;-67
2022/04/04 02:49:28;;;;;;;19.27;12.35;;;4.20;99.90;;;;;;4998197;28;20349;-69
2022/04/04 02:51:55;;;;;;;14.50;10.95;;;4.20;99.90;;;;;;5015810;28;20050;-69
2022/04/04 02:54:20;;;;;;;18.13;10.93;;;4.20;99.90;;;;;;5015617;28;20049;-67
2022/04/04 02:56:46;;;;;;;17.88;12.27;;;4.20;99.90;;;;;;5015237;28;20046;-69
2022/04/04 02:59:12;;;;;;;17.83;11.52;;;4.20;99.90;;;;;;5015205;28;20041;-67
2022/04/04 03:01:38;;;;;;;16.45;11.60;;;4.20;99.90;;;;;;4997068;28;20137;-68
2022/04/04 03:04:04;;;;;;;16.17;10.60;;;4.20;99.90;;;;;;5015413;28;20069;-67
2022/04/04 03:06:30;;;;;;;14.90;10.45;;;4.30;99.90;;;;;;4997473;28;20045;-68
2022/04/04 03:08:56;;;;;;;14.80;11.35;;;4.30;99.90;;;;;;5015083;28;20463;-69
2022/04/04 03:11:22;;;;;;;13.88;10.45;;;4.30;99.90;;;;;;5015560;28;20042;-67
2022/04/04 03:13:48;;;;;;;19.33;11.23;;;4.40;99.90;;;;;;5014195;28;20113;-67
2022/04/04 03:16:14;;;;;;;14.60;10.57;;;4.40;99.90;;;;;;5015295;28;20052;-67
2022/04/04 03:18:40;;;;;;;16.38;10.93;;;4.40;99.90;;;;;;5014670;28;20042;-68
2022/04/04 03:21:07;;;;;;;14.52;10.13;;;4.40;99.90;;;;;;4995699;28;20404;-69
2022/04/04 03:23:40;;;;;;;15.07;10.55;;;4.40;99.90;;;;;;5083294;28;20386;-65
2022/04/04 03:26:09;;;;;;;14.50;10.85;;;4.40;99.90;;;;;;5069827;28;20114;-66
2022/04/04 03:28:36;;;;;;;15.88;10.20;;;4.50;99.90;;;;;;5070157;28;20036;-65
2022/04/04 03:31:04;;;;;;;13.38;10.45;;;4.40;99.90;;;;;;5069027;28;20036;-66
2022/04/04 03:33:33;;;;;;;16.45;9.98;;;4.40;99.90;;;;;;5070517;28;20041;-67
2022/04/04 03:35:59;;;;;;;14.13;10.13;;;4.40;99.90;;;;;;5069280;28;20047;-66
2022/04/04 03:38:25;;;;;;;15.60;10.07;;;4.50;99.90;;;;;;5070246;28;20112;-67
2022/04/04 03:40:53;;;;;;;16.23;10.32;;;4.50;99.90;;;;;;5070084;28;20146;-66
2022/04/04 03:43:19;;;;;;;16.98;10.38;;;4.50;99.90;;;;;;5070084;28;20334;-67
2022/04/04 03:45:45;;;;;;;15.77;9.85;;;4.50;99.90;;;;;;5071187;28;20028;-68
2022/04/04 03:48:11;;;;;;;14.00;9.82;;;4.50;99.90;;;;;;5069551;28;20357;-66
2022/04/04 03:50:38;;;;;;;11.45;9.25;;;4.50;99.90;;;;;;5069748;28;20091;-68
2022/04/04 03:53:04;;;;;;;16.10;10.10;;;4.60;99.90;;;;;;5070697;28;20037;-66
2022/04/04 03:55:37;;;;;;;13.48;9.20;;;4.60;99.90;;;;;;5052023;28;20041;-66
2022/04/04 03:58:03;;;;;;;14.65;9.88;;;4.60;99.90;;;;;;5050169;28;20048;-66
2022/04/04 04:00:29;;;;;;;14.07;9.90;;;4.60;99.90;;;;;;5065861;28;20041;-67
2022/04/04 04:02:56;;;;;;;13.25;9.63;;;4.70;99.90;;;;;;5070283;28;20064;-66
2022/04/04 04:05:21;;;;;;;14.88;10.32;;;4.70;99.90;;;;;;5069417;28;20370;-67
2022/04/04 04:07:48;;;;;;;15.45;9.65;;;4.60;99.90;;;;;;5069644;28;20043;-67
2022/04/04 04:10:13;;;;;;;13.13;9.80;;;4.70;99.90;;;;;;5070082;28;20033;-66
2022/04/04 04:12:40;;;;;;;12.63;10.07;;;4.70;99.90;;;;;;5068970;28;20216;-66
2022/04/04 04:15:12;;;;;;;16.38;9.93;;;4.70;99.90;;;;;;5068754;28;20045;-68
2022/04/04 04:17:38;;;;;;;13.82;9.43;;;4.80;99.90;;;;;;5085649;28;20036;-66
2022/04/04 04:20:20;;;;;;;11.85;9.43;;;4.90;99.90;;;;;;5069792;28;20047;-68
2022/04/04 04:23:14;;;;;;;12.52;10.02;;;4.90;99.90;;;;;;5069877;28;20171;-68
2022/04/04 04:25:41;;;;;;;12.82;10.15;;;4.90;99.90;;;;;;5065538;28;20120;-66
2022/04/04 04:28:06;;;;;;;14.93;10.35;;;4.90;99.90;;;;;;5069881;28;20037;-67
2022/04/04 04:30:32;;;;;;;15.90;10.70;;;4.90;99.90;;;;;;5070025;28;20111;-66
2022/04/04 04:32:59;;;;;;;15.43;10.82;;;4.90;99.90;;;;;;5068348;28;20047;-67
2022/04/04 04:35:25;;;;;;;16.55;10.80;;;5.00;99.90;;;;;;5056792;28;20040;-66
2022/04/04 04:37:51;;;;;;;15.27;11.73;;;4.90;99.90;;;;;;5056354;28;20457;-67
2022/04/04 04:40:17;;;;;;;13.77;10.55;;;4.90;99.90;;;;;;5056636;28;20048;-66
2022/04/04 04:42:45;;;;;;;14.48;10.63;;;5.00;99.90;;;;;;5056677;28;20048;-66
2022/04/04 04:45:12;;;;;;;15.55;10.18;;;5.00;99.90;;;;;;5056418;28;20120;-67
2022/04/04 04:47:38;;;;;;;17.23;11.60;;;4.90;99.90;;;;;;5056197;28;20090;-66
2022/04/04 04:50:06;;;;;;;15.90;11.60;;;5.00;99.90;;;;;;5056035;28;20069;-66
2022/04/04 04:52:32;;;;;;;13.65;10.35;;;5.00;99.90;;;;;;5055521;28;20041;-67
2022/04/04 04:54:59;;;;;;;15.00;10.43;;;5.00;99.90;;;;;;5055300;28;20451;-66
2022/04/04 04:57:25;;;;;;;15.70;11.38;;;5.00;99.90;;;;;;5052844;28;20056;-66
2022/04/04 04:59:50;;;;;;;16.35;11.13;;;5.00;99.90;;;;;;5044904;28;20041;-68
2022/04/04 05:02:16;;;;;;;18.95;11.95;;;5.00;99.90;;;;;;5054958;28;20723;-67
2022/04/04 05:04:41;;;;;;;14.02;11.10;;;5.00;99.90;;;;;;5053160;28;20533;-67
2022/04/04 05:07:08;;;;;;;20.25;10.82;;;5.00;99.90;;;;;;5068684;28;20344;-67
2022/04/04 05:09:36;;;;;;;17.58;11.23;;;5.00;99.90;;;;;;5060828;28;20048;-67
2022/04/04 05:12:02;;;;;;;15.18;10.57;;;5.10;99.90;;;;;;5034574;28;20049;-66
2022/04/04 05:14:28;;;;;;;14.77;9.82;;;5.00;99.90;;;;;;5039853;28;20025;-66
2022/04/04 05:16:54;;;;;;;18.13;10.63;;;5.10;99.90;;;;;;5054030;28;20461;-67
2022/04/04 05:19:22;;;;;;;13.90;10.02;;;5.10;99.90;;;;;;5055693;28;20041;-67
2022/04/04 05:21:48;;;;;;;15.57;9.90;;;5.10;99.90;;;;;;5054949;28;20063;-66
2022/04/04 05:24:14;;;;;;;15.27;9.73;;;5.20;99.90;;;;;;5054770;28;20106;-66
2022/04/04 05:26:41;;;;;;;16.02;10.00;;;5.20;99.90;;;;;;5054920;28;20370;-65
2022/04/04 05:29:07;;;;;;;14.15;10.18;;;5.20;99.90;;;;;;5054530;28;20048;-66
2022/04/04 05:31:35;;;;;;;11.73;9.55;;;5.20;99.90;;;;;;5054713;28;20489;-66
2022/04/04 05:34:04;;;;;;;11.85;9.38;;;5.20;99.90;;;;;;5038041;28;20079;-67
2022/04/04 05:36:30;;;;;;;15.45;9.90;;;5.20;99.90;;;;;;5055056;28;20362;-66
2022/04/04 05:38:56;;;;;;;15.07;8.88;;;5.20;99.90;;;;;;5054271;28;20033;-67
2022/04/04 05:41:22;;;;;;;12.85;9.10;;;5.30;99.90;;;;;;5054793;28;20055;-67
2022/04/04 05:43:49;;;;;;;11.50;9.00;;;5.30;99.90;;;;;;5052977;28;20358;-71
2022/04/04 05:46:16;;;;;;;13.95;9.13;;;5.30;99.90;;;;;;5052765;28;20454;-68
2022/04/04 05:48:42;;;;;;;14.63;8.85;;;5.30;99.90;;;;;;5054073;28;20068;-68
2022/04/04 05:51:09;;;;;;;13.50;8.55;;;5.30;99.90;;;;;;5035334;28;20474;-71
2022/04/04 05:53:35;;;;;;;13.23;8.80;;;5.30;99.90;;;;;;5033626;28;20045;-70
2022/04/04 05:56:01;;;;;;;12.20;8.80;;;5.30;99.90;;;;;;5055508;28;20052;-68
2022/04/04 05:58:26;;;;;;;14.48;9.13;;;5.30;99.90;;;;;;5034041;28;20041;-67
2022/04/04 06:00:53;;;;;;;13.90;8.73;;;5.40;99.90;;;;;;5051801;28;20429;-67
2022/04/04 06:03:18;;;;;;;13.35;8.82;;;5.40;99.90;;;;;;5070233;28;20045;-67
2022/04/04 06:05:47;;;;;;;12.40;8.75;;;5.40;99.90;;;;;;5054505;28;20059;-68
2022/04/04 06:08:13;;;;;;;14.50;8.88;;;5.40;99.90;;;;;;5053669;28;20049;-67
2022/04/04 06:10:38;;;;;;;12.07;8.65;;;5.40;99.90;;;;;;5053702;28;20064;-67
2022/04/04 06:13:04;;;;;;;11.27;9.00;;;5.40;99.90;;;;;;5054556;28;20130;-68
2022/04/04 06:15:30;;;;;;;14.80;8.75;;;5.40;99.90;;;;;;5054440;28;20044;-67
2022/04/04 06:17:56;;;;;;;13.63;8.75;;;5.40;99.90;;;;;;5053925;28;20041;-68
2022/04/04 06:20:22;;;;;;;17.08;9.10;;;5.40;99.90;;;;;;5036863;28;20170;-67
2022/04/04 06:22:47;;;;;;;15.73;9.40;;;5.40;99.90;;;;;;5052146;28;20132;-67
2022/04/04 06:25:14;;;;;;;12.27;8.77;;;5.40;99.90;;;;;;5052443;28;20067;-67
2022/04/04 06:27:41;;;;;;;14.75;8.80;;;5.40;99.90;;;;;;5052452;28;20086;-67
2022/04/04 06:30:07;;;;;;;13.43;9.55;;;5.30;99.90;;;;;;5053223;28;20047;-69
2022/04/04 06:32:33;;;;;;;14.55;8.60;;;5.40;99.90;;;;;;5053489;28;20091;-67
2022/04/04 06:34:59;;;;;;;14.55;9.48;;;5.40;99.90;;;;;;5053442;28;20091;-68
2022/04/04 06:37:25;;;;;;;14.43;10.23;;;5.50;99.90;;;;;;5036494;28;20351;-69
2022/04/04 06:39:51;;;;;;;15.32;9.45;;;5.50;99.90;;;;;;5053118;28;20075;-67
2022/04/04 06:42:16;;;;;;;15.50;9.57;;;5.40;99.90;;;;;;5053209;28;20136;-68
2022/04/04 06:44:42;;;;;;;13.38;9.45;;;5.50;99.90;;;;;;5051737;28;20187;-67
2022/04/04 06:47:09;;;;;;;12.55;9.13;;;5.50;99.90;;;;;;5063101;28;20076;-66
2022/04/04 06:49:35;;;;;;;18.67;10.45;;;5.60;99.90;;;;;;5053682;28;20055;-67
2022/04/04 06:52:01;;;;;;;14.52;9.07;;;5.60;99.90;;;;;;5052977;28;20044;-66
2022/04/04 06:54:27;;;;;;;17.05;10.32;;;5.60;99.90;;;;;;5054137;28;20095;-67
2022/04/04 06:56:55;;;;;;;14.50;9.30;;;5.70;99.90;;;;;;5052367;28;20048;-66
2022/04/04 06:59:21;;;;;;;14.10;10.05;;;5.70;99.90;;;;;;5052702;28;20055;-66
2022/04/04 07:01:47;;;;;;;16.20;11.07;;;5.60;99.90;;;;;;5055419;28;20049;-67
2022/04/04 07:04:13;;;;;;;17.02;9.88;;;5.50;99.90;;;;;;5073258;28;20069;-67
2022/04/04 07:06:39;;;;;;;15.27;10.35;;;5.50;99.90;;;;;;5072555;28;20441;-66
2022/04/04 07:09:05;;;;;;;15.10;10.45;;;5.50;99.90;;;;;;5053086;28;20875;-66
2022/04/04 07:11:31;;;;;;;15.82;10.73;;;5.50;99.90;;;;;;5053115;28;20062;-66
2022/04/04 07:13:57;;;;;;;16.15;10.23;;;5.50;99.90;;;;;;5054010;28;20045;-66
2022/04/04 07:16:23;;;;;;;15.35;10.57;;;5.40;99.90;;;;;;5053527;28;20049;-69
2022/04/04 07:18:49;;;;;;;17.45;11.85;;;5.50;99.90;;;;;;5045661;28;20045;-68
2022/04/04 07:21:18;;;;;;;14.32;11.77;;;5.50;99.90;;;;;;5053056;28;20047;-66
2022/04/04 07:23:44;;;;;;;16.38;10.90;;;5.40;99.90;;;;;;5053894;28;20053;-66
2022/04/04 07:26:09;;;;;;;18.13;13.13;;;5.50;99.90;;;;;;5052198;28;20355;-66
2022/04/04 07:28:35;;;;;;;18.20;13.27;;;5.50;99.90;;;;;;5052554;28;20051;-65
2022/04/04 07:31:03;;;;;;;18.85;11.98;;;5.60;99.90;;;;;;5052311;28;20080;-65
2022/04/04 07:33:29;;;;;;;17.85;12.25;;;5.60;99.90;;;;;;5052534;28;20053;-65
2022/04/04 07:35:55;;;;;;;16.90;12.43;;;5.60;99.90;;;;;;5053601;28;20056;-66
2022/04/04 07:38:20;;;;;;;18.88;13.38;;;5.60;99.90;;;;;;5045007;28;20067;-65
2022/04/04 07:40:46;;;;;;;17.55;12.27;;;5.50;99.90;;;;;;5049823;28;20715;-66
2022/04/04 07:43:12;;;;;;;15.90;12.63;;;5.50;99.90;;;;;;5052518;28;20545;-65
2022/04/04 07:45:38;;;;;;;21.23;13.32;;;5.60;99.90;;;;;;5053153;28;20090;-65
2022/04/04 07:48:06;;;;;;;19.60;13.68;;;5.60;99.90;;;;;;5052201;28;20075;-67
2022/04/04 07:50:33;;;;;;;18.08;13.50;;;5.60;99.90;;;;;;5052179;28;20052;-65
2022/04/04 07:52:59;;;;;;;17.70;13.25;;;5.60;99.90;;;;;;5053445;28;20048;-65
2022/04/04 07:55:25;;;;;;;18.05;12.57;;;5.60;99.90;;;;;;5053347;28;20440;-67
2022/04/04 07:57:50;;;;;;;16.40;12.23;;;5.70;99.90;;;;;;5051098;28;20041;-66
2022/04/04 08:00:18;;;;;;;18.40;11.98;;;5.70;99.90;;;;;;5048951;28;20048;-65
2022/04/04 08:02:44;;;;;;;13.98;11.38;;;5.60;99.90;;;;;;5067925;28;20051;-66
2022/04/04 08:05:10;;;;;;;18.10;11.13;;;5.70;99.90;;;;;;5052148;28;20033;-67
2022/04/04 08:07:37;;;;;;;14.85;10.38;;;5.70;99.90;;;;;;5053138;28;20033;-67
2022/04/04 08:10:04;;;;;;;13.07;10.77;;;5.80;99.90;;;;;;5055173;28;20118;-65
2022/04/04 08:12:30;;;;;;;14.98;10.75;;;5.70;99.90;;;;;;5056975;28;20362;-66
2022/04/04 08:14:56;;;;;;;17.17;11.10;;;5.70;99.90;;;;;;5056230;28;20056;-68
2022/04/04 08:17:23;;;;;;;14.73;11.20;;;5.80;99.90;;;;;;5055492;28;20461;-66
2022/04/04 08:19:50;;;;;;;15.70;10.25;;;5.70;99.90;;;;;;5055676;28;20510;-66
2022/04/04 08:22:17;;;;;;;15.82;11.80;;;5.80;99.90;;;;;;5056812;28;20049;-66
2022/04/04 08:24:43;;;;;;;16.90;10.48;;;5.90;99.90;;;;;;5056572;28;20052;-66
2022/04/04 08:27:10;;;;;;;14.80;10.30;;;5.80;99.90;;;;;;5056584;28;20029;-66
2022/04/04 08:29:37;;;;;;;13.85;10.05;;;5.90;99.90;;;;;;5056723;28;20108;-66
2022/04/04 08:32:03;;;;;;;16.20;10.27;;;5.80;99.90;;;;;;5055413;28;20041;-65
2022/04/04 08:34:29;;;;;;;12.52;8.93;;;5.80;99.90;;;;;;5055617;28;20048;-66
2022/04/04 08:36:55;;;;;;;12.57;9.18;;;5.80;99.90;;;;;;5056173;28;20077;-66
2022/04/04 08:39:21;;;;;;;11.57;7.70;;;5.80;99.90;;;;;;5056393;28;20366;-66
2022/04/04 08:41:47;;;;;;;12.50;8.23;;;5.90;99.90;;;;;;5055283;28;20053;-67
2022/04/04 08:44:15;;;;;;;13.50;7.95;;;5.90;99.90;;;;;;5056688;28;20049;-66
2022/04/04 08:46:42;;;;;;;14.93;7.97;;;5.90;99.90;;;;;;5055904;28;20099;-65
2022/04/04 08:49:08;;;;;;;13.50;8.48;;;5.90;99.90;;;;;;5056433;28;20047;-67
2022/04/04 08:51:35;;;;;;;12.55;7.53;;;5.90;99.90;;;;;;5055482;28;20102;-66
2022/04/04 08:54:01;;;;;;;16.42;7.10;;;5.90;99.90;;;;;;5048814;28;20040;-66
2022/04/04 08:56:27;;;;;;;12.48;7.60;;;5.90;99.90;;;;;;5074845;28;20457;-68
2022/04/04 08:58:54;;;;;;;11.80;6.72;;;5.90;99.90;;;;;;5074797;28;20047;-68
2022/04/04 09:01:22;;;;;;;12.52;6.25;;;6.00;99.90;;;;;;5070743;28;20117;-66
2022/04/04 09:03:55;;;;;;;9.25;5.50;;;6.00;99.90;;;;;;5056653;28;20202;-66
2022/04/04 09:06:21;;;;;;;11.40;4.97;;;5.90;99.90;;;;;;5055445;28;20041;-66
2022/04/04 09:08:48;;;;;;;8.43;4.57;;;5.90;99.90;;;;;;5056043;28;20366;-66
2022/04/04 09:11:14;;;;;;;7.43;4.60;;;5.90;99.90;;;;;;5054741;28;20037;-66
2022/04/04 09:13:41;;;;;;;7.40;4.43;;;5.90;99.90;;;;;;5054990;28;20049;-66
2022/04/04 09:16:08;;;;;;;7.50;4.55;;;6.00;99.90;;;;;;5055407;28;20041;-66
2022/04/04 09:18:37;;;;;;;7.30;4.60;;;5.90;99.90;;;;;;5038112;28;20056;-67
2022/04/04 09:21:04;;;;;;;7.00;4.28;;;5.90;99.90;;;;;;5054058;28;20040;-67
2022/04/04 09:23:34;;;;;;;7.57;4.57;;;6.00;99.90;;;;;;5054273;28;20055;-67
2022/04/04 09:26:01;;;;;;;8.32;4.50;;;5.90;99.90;;;;;;5054511;28;20049;-67
2022/04/04 09:28:27;;;;;;;6.50;4.95;;;5.90;99.90;;;;;;5054497;28;20049;-67
2022/04/04 09:31:10;;;;;;;8.88;4.78;;;5.90;99.90;;;;;;5047929;28;20049;-67
2022/04/04 09:33:38;;;;;;;9.30;5.40;;;5.90;99.90;;;;;;5035906;28;20382;-66
2022/04/04 09:36:05;;;;;;;6.55;4.60;;;6.00;99.90;;;;;;5034414;28;20095;-66
2022/04/04 09:38:34;;;;;;;7.35;4.78;;;6.00;99.90;;;;;;5035488;28;20041;-66
2022/04/04 09:41:19;;;;;;;7.82;4.35;;;6.00;99.90;;;;;;5052648;28;20139;-66
2022/04/04 09:43:53;;;;;;;6.28;4.22;;;6.00;99.90;;;;;;5037895;28;20041;-66
2022/04/04 09:46:20;;;;;;;6.93;4.10;;;6.00;99.90;;;;;;5053748;28;20048;-68
2022/04/04 09:49:15;;;;;;;9.27;5.53;;;6.00;99.90;;;;;;5054029;28;20044;-67
2022/04/04 09:51:52;;;;;;;7.43;4.75;;;6.00;99.90;;;;;;5035379;28;20052;-66
2022/04/04 09:54:23;;;;;;;7.78;4.55;;;6.00;99.90;;;;;;5060175;28;20385;-66
2022/04/04 09:57:10;;;;;;;6.43;4.20;;;6.10;99.90;;;;;;5073595;28;20044;-67
2022/04/04 09:59:41;;;;;;;7.15;4.53;;;6.10;99.90;;;;;;5069496;28;20033;-66
2022/04/04 10:02:07;;;;;;;8.68;5.07;;;6.10;99.90;;;;;;5053942;28;20516;-66
2022/04/04 10:04:33;;;;;;;8.10;4.68;;;6.10;99.90;;;;;;5054887;28;20033;-65
2022/04/04 10:07:06;;;;;;;8.00;4.40;;;6.10;99.90;;;;;;5054661;28;20036;-68
2022/04/04 10:09:32;;;;;;;7.60;4.18;;;6.10;99.90;;;;;;5054036;28;20462;-66
2022/04/04 10:11:58;;;;;;;7.32;3.92;;;6.20;99.90;;;;;;5054835;28;20052;-66
2022/04/04 10:14:25;;;;;;;6.55;4.32;;;6.20;99.90;;;;;;5055052;28;20045;-65
2022/04/04 10:16:54;;;;;;;5.43;3.58;;;6.20;99.90;;;;;;5053868;28;20409;-65
2022/04/04 10:19:21;;;;;;;8.35;3.90;;;6.20;99.90;;;;;;5054669;28;20048;-66
2022/04/04 10:21:47;;;;;;;6.93;4.10;;;6.20;99.90;;;;;;5054273;28;20114;-65
2022/04/04 10:24:13;;;;;;;8.20;4.82;;;6.30;99.90;;;;;;5054475;28;20528;-65
2022/04/04 10:26:41;;;;;;;7.38;4.30;;;6.30;99.90;;;;;;5052798;28;20431;-65
2022/04/04 10:29:15;;;;;;;5.70;4.13;;;6.30;99.90;;;;;;5053995;28;20037;-66
2022/04/04 10:31:49;;;;;;;6.65;4.43;;;6.30;99.90;;;;;;5053777;28;20112;-66
2022/04/04 10:34:18;;;;;;;9.23;5.15;;;6.40;99.90;;;;;;5054426;28;20485;-65
2022/04/04 10:37:14;;;;;;;7.30;4.65;;;6.40;99.90;;;;;;5052972;28;20362;-65
2022/04/04 10:39:48;;;;;;;9.77;4.35;;;6.40;99.90;;;;;;5039211;28;20493;-66
2022/04/04 10:42:46;;;;;;;11.05;5.18;;;6.40;99.90;;;;;;5053102;28;20103;-66
2022/04/04 10:45:15;;;;;;;7.38;5.03;;;6.50;99.90;;;;;;5020242;28;20126;-65
2022/04/04 10:47:43;;;;;;;7.22;4.30;;;6.60;99.90;;;;;;5053174;28;20076;-65
2022/04/04 10:50:30;;;;;;;8.32;4.50;;;6.60;99.90;;;;;;5054206;28;20032;-68
2022/04/04 10:53:12;;;;;;;8.32;5.03;;;6.70;99.90;;;;;;5053164;28;20072;-66
2022/04/04 10:55:40;;;;;;;6.65;4.32;;;6.60;99.90;;;;;;5053922;28;20037;-66
2022/04/04 10:58:36;;;;;;;9.18;4.50;;;6.70;99.90;;;;;;5053968;28;20196;-66
2022/04/04 11:01:11;;;;;;;6.97;3.92;;;6.60;99.90;;;;;;5052749;28;20051;-66
2022/04/04 11:03:46;;;;;;;6.78;4.45;;;6.70;99.90;;;;;;5053984;28;20147;-66
2022/04/04 11:09:12;;;;;;;7.45;4.45;;;6.80;99.90;;;;;;5053936;28;20128;-66
2022/04/04 11:12:00;;;;;;;7.28;3.75;;;6.80;99.90;;;;;;5033931;28;20489;-66
2022/04/04 11:14:28;;;;;;;6.15;3.70;;;6.80;99.90;;;;;;5034201;28;20042;-67
2022/04/04 11:17:06;;;;;;;8.70;4.45;;;6.90;99.90;;;;;;5048900;28;20073;-65
2022/04/04 11:19:53;;;;;;;7.30;3.42;;;6.90;99.90;;;;;;5053808;28;20041;-67
2022/04/04 11:22:21;;;;;;;6.45;3.75;;;6.90;99.90;;;;;;5052461;28;20072;-64
2022/04/04 11:25:05;;;;;;;5.00;3.03;;;6.90;99.90;;;;;;5053750;28;20048;-64
2022/04/04 11:27:33;;;;;;;7.15;3.80;;;7.00;99.90;;;;;;5053818;28;20124;-64
2022/04/04 11:30:07;;;;;;;7.03;2.90;;;7.00;99.90;;;;;;5053578;28;20041;-67
2022/04/04 11:32:34;;;;;;;5.38;3.40;;;7.10;99.90;;;;;;5052355;28;20076;-66
2022/04/04 11:35:22;;;;;;;6.70;3.63;;;7.00;99.90;;;;;;5051928;28;20389;-66
2022/04/04 11:37:49;;;;;;;7.00;3.30;;;7.00;99.90;;;;;;5052529;28;20052;-66
2022/04/04 11:40:38;;;;;;;6.75;3.25;;;7.10;99.90;;;;;;5052186;28;20043;-66
2022/04/04 11:43:07;;;;;;;6.32;3.30;;;7.10;99.90;;;;;;5053685;28;20041;-66
2022/04/04 11:45:36;;;;;;;8.05;3.72;;;7.10;99.90;;;;;;5056302;28;20041;-65
2022/04/04 11:48:23;;;;;;;5.68;3.63;;;7.10;99.90;;;;;;5057537;28;20040;-65
2022/04/04 11:50:51;;;;;;;6.32;3.38;;;7.10;99.90;;;;;;5057321;28;20041;-67
2022/04/04 11:53:25;;;;;;;5.90;3.58;;;7.20;99.90;;;;;;5056496;28;20087;-67
2022/04/04 11:55:52;;;;;;;6.47;3.90;;;7.20;99.90;;;;;;5056102;28;20044;-66
2022/04/04 11:58:20;;;;;;;8.93;3.78;;;7.20;99.90;;;;;;5057234;28;20450;-66
2022/04/04 12:00:55;;;;;;;7.55;3.80;;;7.20;99.90;;;;;;5056673;28;20810;-66
2022/04/04 12:03:23;;;;;;;6.38;3.30;;;7.20;99.90;;;;;;5056174;28;20041;-66
2022/04/04 12:05:50;;;;;;;5.63;2.78;;;7.20;99.90;;;;;;5055914;28;20048;-65
2022/04/04 12:08:17;;;;;;;5.32;2.55;;;7.20;99.90;;;;;;5055987;28;20051;-66
2022/04/04 12:10:47;;;;;;;5.72;2.97;;;7.30;99.90;;;;;;5055720;28;20045;-65
2022/04/04 12:13:19;;;;;;;4.68;3.15;;;7.30;99.90;;;;;;5057110;28;20072;-65
2022/04/04 12:15:47;;;;;;;6.15;3.10;;;7.30;99.90;;;;;;5056537;28;20123;-65
2022/04/04 12:18:26;;;;;;;3.92;2.60;;;7.30;99.90;;;;;;5038543;28;20597;-65
2022/04/04 12:20:58;;;;;;;5.47;2.92;;;7.30;99.90;;;;;;5053610;28;20043;-66
2022/04/04 12:26:13;;;;;;;6.22;3.50;;;7.40;99.90;;;;;;5071964;28;20048;-66
2022/04/04 12:29:00;;;;;;;7.90;3.75;;;7.40;99.90;;;;;;5056841;28;20126;-64
2022/04/04 12:31:27;;;;;;;5.93;3.13;;;7.40;99.90;;;;;;5055193;28;20053;-65
2022/04/04 12:33:53;;;;;;;6.63;3.72;;;7.40;99.90;;;;;;5056458;28;20088;-65
2022/04/04 12:36:29;;;;;;;5.95;2.72;;;7.50;99.90;;;;;;5056464;28;20130;-64
2022/04/04 12:38:58;;;;;;;5.10;3.15;;;7.40;99.90;;;;;;5055516;28;20036;-65
2022/04/04 12:41:24;;;;;;;7.28;3.53;;;7.50;99.90;;;;;;5056502;28;20052;-65
2022/04/04 12:44:04;;;;;;;7.88;4.50;;;7.50;99.90;;;;;;5056185;28;20036;-65
2022/04/04 12:46:32;;;;;;;7.40;2.83;;;7.50;99.90;;;;;;5055101;28;20049;-65
2022/04/04 12:49:14;;;;;;;7.55;3.70;;;7.50;99.90;;;;;;5056161;28;20045;-64
2022/04/04 12:51:50;;;;;;;6.88;3.20;;;7.60;99.90;;;;;;5035322;28;20045;-64
2022/04/04 12:54:41;;;;;;;8.68;4.18;;;7.70;99.90;;;;;;5059683;28;20490;-65
2022/04/04 12:57:09;;;;;;;5.55;2.78;;;7.70;99.90;;;;;;5074801;28;20032;-65
2022/04/04 12:59:53;;;;;;;7.75;3.53;;;7.70;99.90;;;;;;5071079;28;20087;-65
2022/04/04 13:02:18;;;;;;;5.55;3.58;;;7.70;99.90;;;;;;5056129;28;20051;-64